createdAt,value
2023-02-02T00:04:32.466Z,91.00
2023-02-02T00:09:33.962Z,92.80
2023-02-02T00:14:35.370Z,91.65
2023-02-02T00:19:36.985Z,92.88
2023-02-02T00:24:38.369Z,92.75
2023-02-02T00:29:39.910Z,92.41
2023-02-02T00:34:41.295Z,93.80
2023-02-02T00:39:42.667Z,93.47
2023-02-02T00:45:02.728Z,94.06
2023-02-02T00:50:04.456Z,94.24
2023-02-02T00:55:06.543Z,93.59
2023-02-02T01:00:12.073Z,93.27
2023-02-02T01:05:13.967Z,93.72
2023-02-02T01:10:18.103Z,93.39
2023-02-02T01:15:19.658Z,92.74
2023-02-02T01:20:21.281Z,93.13
2023-02-02T01:25:22.904Z,92.85
2023-02-02T01:30:24.444Z,93.18
2023-02-02T01:35:26.097Z,93.17
2023-02-02T01:40:27.728Z,93.42
2023-02-02T01:45:29.316Z,93.21
2023-02-02T01:50:34.444Z,93.78
2023-02-02T01:55:39.618Z,93.56
2023-02-02T02:00:45.046Z,94.04
2023-02-02T02:05:54.672Z,95.15
2023-02-02T02:10:56.938Z,94.79
2023-02-02T02:16:19.326Z,95.04
2023-02-02T02:22:23.718Z,94.77
2023-02-02T02:27:47.282Z,96.80
2023-02-02T02:33:14.502Z,96.58
2023-02-02T02:38:28.170Z,96.44
2023-02-02T02:43:34.875Z,96.83
2023-02-02T02:48:36.337Z,97.96
2023-02-02T02:53:37.988Z,97.21
2023-02-02T02:59:05.903Z,97.67
2023-02-02T03:04:18.580Z,97.70
2023-02-02T03:09:25.382Z,97.64
2023-02-02T03:14:26.792Z,98.16
2023-02-02T03:19:28.212Z,98.44
2023-02-02T03:24:29.616Z,98.65
2023-02-02T03:29:31.082Z,98.46
2023-02-02T03:34:32.539Z,98.19
2023-02-02T03:39:33.947Z,97.57
2023-02-02T03:44:35.444Z,97.01
2023-02-02T03:49:36.894Z,97.28
2023-02-02T03:54:38.282Z,97.45
2023-02-02T03:59:39.644Z,96.07
2023-02-02T04:04:41.044Z,96.40
2023-02-02T04:09:42.426Z,96.52
2023-02-02T04:14:43.900Z,96.52
2023-02-02T04:19:45.307Z,96.42
2023-02-02T04:24:46.722Z,97.18
2023-02-02T04:29:48.189Z,96.23
2023-02-02T04:34:49.559Z,96.10
2023-02-02T04:39:50.997Z,95.83
2023-02-02T04:44:52.373Z,96.72
2023-02-02T04:49:53.750Z,96.77
2023-02-02T04:54:55.130Z,96.51
2023-02-02T04:59:56.520Z,96.84
2023-02-02T05:04:58.122Z,97.30
2023-02-02T05:09:59.551Z,97.44
2023-02-02T05:15:02.124Z,97.20
2023-02-02T05:20:03.746Z,97.54
2023-02-02T05:25:06.631Z,96.85
2023-02-02T05:30:10.438Z,96.73
2023-02-02T05:35:12.005Z,97.40
2023-02-02T05:40:13.388Z,96.44
2023-02-02T05:45:15.111Z,96.90
2023-02-02T05:50:16.679Z,96.72
2023-02-02T05:55:20.017Z,97.40
2023-02-02T06:00:22.045Z,96.59
2023-02-02T06:05:23.808Z,97.01
2023-02-02T06:10:25.560Z,97.38
2023-02-02T06:15:28.940Z,97.43
2023-02-02T06:20:30.440Z,98.07
2023-02-02T06:25:31.896Z,97.79
2023-02-02T06:30:33.321Z,98.73
2023-02-02T06:35:35.143Z,98.85
2023-02-02T06:40:36.619Z,99.35
2023-02-02T06:45:40.162Z,98.89
2023-02-02T06:50:41.642Z,98.09
2023-02-02T06:55:43.014Z,98.22
2023-02-02T07:00:44.399Z,99.04
2023-02-02T07:05:45.784Z,98.58
2023-02-02T07:11:13.165Z,98.31
2023-02-02T07:16:12.914Z,97.68
2023-02-02T07:21:20.727Z,98.43
2023-02-02T07:26:22.137Z,97.65
2023-02-02T07:31:26.010Z,97.73
2023-02-02T07:36:27.496Z,96.87
2023-02-02T07:41:28.901Z,96.50
2023-02-02T07:46:30.422Z,95.70
2023-02-02T07:51:31.819Z,96.11
2023-02-02T07:56:33.441Z,95.11
2023-02-02T08:01:34.867Z,95.99
2023-02-02T08:06:38.459Z,95.41
2023-02-02T08:11:39.845Z,95.74
2023-02-02T08:16:41.290Z,94.89
2023-02-02T08:21:42.689Z,94.12
2023-02-02T08:26:44.168Z,94.22
2023-02-02T08:31:45.922Z,94.40
2023-02-02T08:36:47.378Z,94.39
2023-02-02T08:41:48.788Z,94.07
2023-02-02T08:46:50.391Z,93.56
2023-02-02T08:51:51.785Z,93.11
2023-02-02T08:56:53.199Z,93.63
2023-02-02T09:01:54.602Z,93.50
2023-02-02T09:06:55.992Z,92.96
2023-02-02T09:11:57.376Z,92.64
2023-02-02T09:16:58.881Z,92.95
2023-02-02T09:22:00.342Z,92.94
2023-02-02T09:27:01.872Z,92.74
2023-02-02T09:32:03.483Z,91.93
2023-02-02T09:37:05.105Z,92.01
2023-02-02T09:42:19.662Z,91.82
2023-02-02T09:47:25.813Z,91.00
2023-02-02T09:52:48.969Z,91.40
2023-02-02T09:57:55.659Z,91.25
2023-02-02T10:03:18.987Z,91.15
2023-02-02T10:08:46.518Z,91.40
2023-02-02T10:13:50.680Z,90.23
2023-02-02T10:18:59.589Z,89.66
2023-02-02T10:24:03.474Z,88.90
2023-02-02T10:29:26.208Z,89.06
2023-02-02T10:34:47.431Z,89.56
2023-02-02T10:40:07.596Z,88.94
2023-02-02T10:45:20.451Z,87.77
2023-02-02T10:50:22.535Z,87.33
2023-02-02T10:55:51.749Z,86.90
2023-02-02T11:00:55.799Z,87.18
2023-02-02T11:06:18.427Z,86.87
2023-02-02T11:11:40.091Z,86.71
2023-02-02T11:16:44.517Z,86.39
2023-02-02T11:21:53.275Z,86.48
2023-02-02T11:27:12.897Z,85.76
2023-02-02T11:32:27.565Z,85.94
2023-02-02T11:37:29.746Z,86.44
2023-02-02T11:42:31.239Z,86.37
2023-02-02T11:47:33.892Z,85.99
2023-02-02T11:52:37.377Z,85.83
2023-02-02T11:57:38.804Z,86.25
2023-02-02T12:02:46.748Z,86.50
2023-02-02T12:07:49.004Z,86.67
2023-02-02T12:12:59.858Z,86.37
2023-02-02T12:18:19.708Z,86.14
2023-02-02T12:23:27.164Z,85.98
2023-02-02T12:28:43.138Z,85.59
2023-02-02T12:34:02.935Z,85.93
2023-02-02T12:39:11.094Z,85.76
2023-02-02T12:44:28.128Z,85.99
2023-02-02T12:50:03.467Z,85.18
2023-02-02T12:55:10.809Z,85.22
2023-02-02T13:00:19.813Z,85.70
2023-02-02T13:05:44.152Z,86.02
2023-02-02T13:10:49.051Z,86.02
2023-02-02T13:15:59.570Z,85.48
2023-02-02T13:21:02.585Z,84.42
2023-02-02T13:26:15.325Z,85.35
2023-02-02T13:31:22.683Z,85.06
2023-02-02T13:36:29.993Z,85.25
2023-02-02T13:41:31.695Z,84.85
2023-02-02T13:46:59.656Z,84.35
2023-02-02T13:52:39.256Z,84.02
2023-02-02T13:58:00.404Z,83.68
2023-02-02T14:03:16.662Z,83.88
2023-02-02T14:08:21.534Z,83.88
2023-02-02T14:13:52.389Z,83.48
2023-02-02T14:18:55.371Z,83.23
2023-02-02T14:23:58.128Z,82.81
2023-02-02T14:28:59.591Z,82.08
2023-02-02T14:34:40.086Z,82.21
2023-02-02T14:40:01.664Z,82.22
2023-02-02T14:45:12.271Z,81.79
2023-02-02T14:50:28.857Z,82.18
2023-02-02T14:55:30.983Z,81.44
2023-02-02T15:00:35.263Z,81.75
2023-02-02T15:05:39.101Z,81.57
2023-02-02T15:10:56.679Z,81.50
2023-02-02T15:16:10.205Z,81.64
2023-02-02T15:21:16.887Z,81.29
2023-02-02T15:26:24.740Z,80.74
2023-02-02T15:31:40.291Z,81.15
2023-02-02T15:36:45.388Z,81.03
2023-02-02T15:41:49.953Z,81.63
2023-02-02T15:46:53.278Z,82.27
2023-02-02T15:51:57.656Z,82.18
2023-02-02T15:57:03.496Z,83.23
2023-02-02T16:02:23.007Z,82.84
2023-02-02T16:07:31.086Z,83.60
2023-02-02T16:12:34.105Z,84.65
2023-02-02T16:17:38.690Z,84.29
2023-02-02T16:22:42.302Z,84.36
2023-02-02T16:27:46.324Z,84.79
2023-02-02T16:32:47.746Z,85.03
2023-02-02T16:37:49.147Z,84.67
2023-02-02T16:43:27.596Z,84.01
2023-02-02T16:48:33.815Z,84.51
2023-02-02T16:53:36.245Z,84.30
2023-02-02T16:58:43.890Z,83.62
2023-02-02T17:03:50.547Z,83.23
2023-02-02T17:08:51.957Z,83.39
2023-02-02T17:13:57.702Z,83.77
2023-02-02T17:18:59.106Z,83.42
2023-02-02T17:24:01.240Z,82.55
2023-02-02T17:29:05.205Z,82.08
2023-02-02T17:34:17.079Z,83.00
2023-02-02T17:39:18.657Z,82.66
2023-02-02T17:44:20.040Z,83.28
2023-02-02T17:49:21.545Z,82.81
2023-02-02T17:54:22.951Z,82.77
2023-02-02T17:59:24.379Z,82.79
2023-02-02T18:04:26.955Z,82.63
2023-02-02T18:09:33.855Z,83.23
2023-02-02T18:14:35.391Z,82.99
2023-02-02T18:19:39.068Z,83.08
2023-02-02T18:24:41.094Z,83.42
2023-02-02T18:29:42.824Z,83.14
2023-02-02T18:34:44.911Z,83.39
2023-02-02T18:39:46.362Z,83.31
2023-02-02T18:44:47.769Z,84.14
2023-02-02T18:49:49.250Z,84.02
2023-02-02T18:54:50.739Z,84.13
2023-02-02T18:59:52.934Z,83.99
2023-02-02T19:05:13.252Z,84.50
2023-02-02T19:10:15.019Z,84.28
2023-02-02T19:15:16.972Z,84.78
2023-02-02T19:20:25.971Z,85.15
2023-02-02T19:25:28.360Z,84.82
2023-02-02T19:30:30.008Z,85.31
2023-02-02T19:35:32.090Z,84.80
2023-02-02T19:40:33.671Z,84.67
2023-02-02T19:45:35.301Z,84.94
2023-02-02T19:50:40.792Z,84.29
2023-02-02T19:55:44.257Z,85.28
2023-02-02T20:00:47.996Z,84.20
2023-02-02T20:05:51.717Z,84.40
2023-02-02T20:10:55.887Z,83.99
2023-02-02T20:16:03.924Z,84.26
2023-02-02T20:21:15.821Z,83.85
2023-02-02T20:26:26.061Z,83.49
2023-02-02T20:31:35.913Z,83.77
2023-02-02T20:36:40.410Z,83.38
2023-02-02T20:41:43.856Z,83.46
2023-02-02T20:46:45.340Z,83.55
2023-02-02T20:51:46.802Z,83.62
2023-02-02T20:56:48.352Z,83.46
2023-02-02T21:01:51.220Z,83.89
2023-02-02T21:06:52.865Z,84.15
2023-02-02T21:11:54.288Z,84.15
2023-02-02T21:17:09.058Z,83.94
2023-02-02T21:22:15.651Z,85.71
2023-02-02T21:27:17.121Z,86.38
2023-02-02T21:32:18.495Z,86.74
2023-02-02T21:37:19.901Z,87.73
2023-02-02T21:42:22.961Z,89.61
2023-02-02T21:47:29.173Z,90.38
2023-02-02T21:52:33.710Z,89.32
2023-02-02T21:57:37.012Z,90.56
2023-02-02T22:02:44.145Z,90.16
2023-02-02T22:07:48.678Z,89.19
2023-02-02T22:12:50.058Z,89.31
2023-02-02T22:17:51.501Z,88.73
2023-02-02T22:22:53.003Z,90.49
2023-02-02T22:28:00.191Z,90.29
2023-02-02T22:33:01.981Z,90.52
2023-02-02T22:38:04.449Z,92.35
2023-02-02T22:43:06.528Z,91.94
2023-02-02T22:48:08.245Z,93.89
2023-02-02T22:53:10.115Z,94.24
2023-02-02T22:58:11.576Z,92.89
2023-02-02T23:03:13.019Z,93.11
2023-02-02T23:08:14.437Z,93.10
2023-02-02T23:13:15.925Z,93.05
2023-02-02T23:18:17.487Z,93.61
2023-02-02T23:23:18.861Z,92.61
2023-02-02T23:28:20.311Z,92.21
2023-02-02T23:33:21.737Z,92.48
2023-02-02T23:38:23.359Z,91.90
2023-02-02T23:43:24.809Z,91.28
2023-02-02T23:48:26.249Z,91.35
2023-02-02T23:53:28.148Z,91.32
2023-02-02T23:58:29.693Z,91.33
